Time;durP1;ratioP1;P1;durP2;ratioP2;P2;SDS_P1;SDS_P2;PMS_P1;PMS_P2;Temp;Humidity;BMP_temperature;BMP_pressure;BME280_temperature;BME280_humidity;BME280_pressure;Samples;Min_cycle;Max_cycle;Signal;HPM_P1;HPM_P2
2021/09/04 00:00:53;;;;;;;6.88;4.70;;;15.70;99.90;;;;;;5046105;28;20043;-85
2021/09/04 00:03:20;;;;;;;9.50;5.13;;;15.70;99.90;;;;;;5045299;28;20049;-85
2021/09/04 00:05:47;;;;;;;7.30;4.82;;;15.70;99.90;;;;;;5046234;28;20044;-86
2021/09/04 00:08:15;;;;;;;9.18;5.18;;;15.70;99.90;;;;;;5044604;28;20563;-86
2021/09/04 00:10:43;;;;;;;15.55;8.52;;;15.70;99.90;;;;;;5042525;28;20403;-84
2021/09/04 00:13:10;;;;;;;16.13;9.07;;;15.70;99.90;;;;;;5043182;28;20394;-84
2021/09/04 00:15:37;;;;;;;17.33;9.55;;;15.70;99.90;;;;;;5045789;28;20044;-85
2021/09/04 00:18:04;;;;;;;15.23;8.82;;;15.60;99.90;;;;;;5044202;28;20048;-85
2021/09/04 00:20:31;;;;;;;9.55;6.00;;;15.60;99.90;;;;;;5038638;28;20128;-85
2021/09/04 00:22:59;;;;;;;10.23;5.20;;;15.60;99.90;;;;;;5046073;28;20045;-84
2021/09/04 00:25:26;;;;;;;17.92;10.38;;;15.60;99.90;;;;;;5045142;28;20063;-84
2021/09/04 00:27:54;;;;;;;15.25;9.05;;;15.60;99.90;;;;;;5045671;28;20041;-84
2021/09/04 00:30:21;;;;;;;14.05;8.43;;;15.60;99.90;;;;;;5038361;28;20526;-85
2021/09/04 00:32:48;;;;;;;10.38;5.85;;;15.60;99.90;;;;;;5045829;28;20132;-84
2021/09/04 00:35:16;;;;;;;9.35;5.30;;;15.50;99.90;;;;;;5043278;28;20071;-86
2021/09/04 00:37:43;;;;;;;7.18;5.13;;;15.50;99.90;;;;;;5046964;28;20041;-85
2021/09/04 00:40:12;;;;;;;7.07;4.75;;;15.50;99.90;;;;;;5052673;28;20394;-87
2021/09/04 00:42:39;;;;;;;7.60;5.03;;;15.40;99.90;;;;;;5053026;28;20041;-86
2021/09/04 00:45:09;;;;;;;7.55;5.28;;;15.40;99.90;;;;;;5052890;28;20044;-86
2021/09/04 00:47:36;;;;;;;8.40;4.88;;;15.30;99.90;;;;;;5042012;28;20042;-86
2021/09/04 00:50:05;;;;;;;8.35;5.00;;;15.30;99.90;;;;;;5034940;28;20049;-86
2021/09/04 00:52:32;;;;;;;8.75;4.75;;;15.20;99.90;;;;;;5034576;28;20045;-86
2021/09/04 00:54:59;;;;;;;10.85;5.35;;;15.20;99.90;;;;;;5041132;28;20041;-85
2021/09/04 00:57:26;;;;;;;8.15;5.10;;;15.10;99.90;;;;;;5041937;28;20050;-85
2021/09/04 00:59:53;;;;;;;6.80;4.60;;;15.10;99.90;;;;;;5041594;28;20129;-84
2021/09/04 01:02:22;;;;;;;8.75;4.88;;;15.00;99.90;;;;;;5041922;28;20048;-84
2021/09/04 01:04:49;;;;;;;8.38;4.80;;;15.00;99.90;;;;;;5041617;28;20041;-84
2021/09/04 01:07:16;;;;;;;8.00;4.60;;;14.90;99.90;;;;;;5041966;28;20041;-85
2021/09/04 01:09:43;;;;;;;7.60;5.00;;;14.90;99.90;;;;;;5047603;28;20131;-85
2021/09/04 01:12:10;;;;;;;8.80;5.10;;;14.90;99.90;;;;;;5043686;28;20047;-85
2021/09/04 01:14:37;;;;;;;8.50;4.63;;;15.00;99.90;;;;;;5045693;28;20418;-84
2021/09/04 01:17:05;;;;;;;9.07;4.95;;;14.80;99.90;;;;;;5036765;28;20045;-84
2021/09/04 01:19:34;;;;;;;9.77;4.88;;;14.90;99.90;;;;;;5041309;28;20072;-84
2021/09/04 01:22:01;;;;;;;8.95;5.00;;;14.80;99.90;;;;;;5041698;28;20042;-85
2021/09/04 01:24:28;;;;;;;8.55;5.07;;;14.70;99.90;;;;;;5041441;28;20048;-85
2021/09/04 01:26:56;;;;;;;7.97;4.95;;;14.70;99.90;;;;;;5041229;28;20045;-84
2021/09/04 01:29:23;;;;;;;7.82;4.97;;;14.60;99.90;;;;;;5043995;28;20050;-85
2021/09/04 01:31:50;;;;;;;7.55;4.65;;;14.60;99.90;;;;;;5052252;28;20103;-86
2021/09/04 01:34:17;;;;;;;7.63;4.70;;;14.60;99.90;;;;;;5035198;28;20471;-86
2021/09/04 01:36:45;;;;;;;7.57;4.60;;;14.70;99.90;;;;;;5041426;28;20128;-87
2021/09/04 01:39:12;;;;;;;8.73;5.07;;;14.60;99.90;;;;;;5042014;28;20045;-86
2021/09/04 01:41:41;;;;;;;7.45;5.00;;;14.60;99.90;;;;;;5052676;28;20409;-84
2021/09/04 01:44:09;;;;;;;9.00;5.10;;;14.70;99.90;;;;;;5051696;28;20067;-84
2021/09/04 01:46:36;;;;;;;7.50;4.47;;;14.60;99.90;;;;;;5040415;28;20042;-85
2021/09/04 01:49:04;;;;;;;7.22;4.72;;;14.60;99.90;;;;;;5034501;28;20465;-84
2021/09/04 01:51:31;;;;;;;8.55;5.00;;;14.60;99.90;;;;;;5040898;28;20072;-85
2021/09/04 01:53:58;;;;;;;8.38;4.60;;;14.60;99.90;;;;;;5040509;28;20128;-84
2021/09/04 01:56:26;;;;;;;8.10;4.88;;;14.60;99.90;;;;;;5050892;28;20057;-85
2021/09/04 01:58:53;;;;;;;8.23;4.70;;;14.60;99.90;;;;;;5044379;28;20041;-84
2021/09/04 02:01:21;;;;;;;8.63;5.50;;;14.60;99.90;;;;;;5043650;28;20059;-84
2021/09/04 02:03:48;;;;;;;8.48;4.82;;;14.60;99.90;;;;;;5044249;28;20037;-84
2021/09/04 02:06:15;;;;;;;7.18;4.65;;;14.50;99.90;;;;;;5042403;28;20044;-83
2021/09/04 02:08:42;;;;;;;7.28;4.97;;;14.50;99.90;;;;;;5038547;28;20040;-86
2021/09/04 02:11:10;;;;;;;8.05;4.88;;;14.40;99.90;;;;;;5044715;28;20171;-86
2021/09/04 02:13:37;;;;;;;9.23;5.07;;;14.40;99.90;;;;;;5052827;28;20063;-87
2021/09/04 02:16:05;;;;;;;9.35;5.10;;;14.30;99.90;;;;;;5052761;28;20055;-86
2021/09/04 02:18:33;;;;;;;7.95;4.68;;;14.40;99.90;;;;;;5052074;28;20049;-86
2021/09/04 02:21:01;;;;;;;8.13;5.00;;;14.20;99.90;;;;;;5036958;28;20046;-85
2021/09/04 02:23:28;;;;;;;8.77;5.38;;;14.20;99.90;;;;;;5033650;28;20402;-86
2021/09/04 02:25:56;;;;;;;8.57;4.88;;;;;;;;;;5040784;28;20043;-86
2021/09/04 02:28:26;;;;;;;7.85;4.93;;;;;;;;;;5035901;28;20414;-86
2021/09/04 02:30:53;;;;;;;7.47;5.25;;;;;;;;;;5045506;28;20049;-86
2021/09/04 02:33:20;;;;;;;8.13;4.85;;;;;;;;;;5040531;28;20521;-85
2021/09/04 02:35:49;;;;;;;10.05;5.10;;;;;;;;;;5041055;28;20140;-85
2021/09/04 02:38:17;;;;;;;8.02;4.90;;;;;;;;;;5041902;28;20063;-85
2021/09/04 02:40:44;;;;;;;7.85;4.57;;;13.90;99.90;;;;;;5043938;28;20064;-85
2021/09/04 02:43:11;;;;;;;7.85;5.13;;;13.90;99.90;;;;;;5042615;28;20052;-86
2021/09/04 02:45:38;;;;;;;9.70;4.65;;;13.80;99.90;;;;;;5040965;28;20521;-85
2021/09/04 02:48:06;;;;;;;9.88;4.85;;;13.80;99.90;;;;;;5040381;28;20041;-85
2021/09/04 02:50:33;;;;;;;7.05;4.60;;;13.80;99.90;;;;;;5033264;28;20496;-86
2021/09/04 02:53:03;;;;;;;7.15;4.88;;;13.80;99.90;;;;;;5032617;28;20048;-85
2021/09/04 02:55:31;;;;;;;8.38;4.55;;;13.90;99.90;;;;;;5040859;28;20069;-85
2021/09/04 02:57:58;;;;;;;7.30;4.78;;;13.90;99.90;;;;;;5053039;28;20041;-86
2021/09/04 03:00:25;;;;;;;8.77;5.00;;;13.90;99.90;;;;;;5039289;28;20045;-85
2021/09/04 03:02:53;;;;;;;8.02;4.90;;;13.90;99.90;;;;;;5052467;28;20063;-85
2021/09/04 03:05:21;;;;;;;7.55;4.97;;;13.90;99.90;;;;;;5050354;28;20487;-84
2021/09/04 03:07:48;;;;;;;8.23;4.80;;;13.90;99.90;;;;;;5040095;28;20129;-85
2021/09/04 03:10:17;;;;;;;7.80;4.82;;;13.90;99.90;;;;;;5041298;28;20041;-84
2021/09/04 03:12:45;;;;;;;7.45;4.72;;;13.90;99.90;;;;;;5038303;28;20438;-85
2021/09/04 03:15:13;;;;;;;7.55;5.00;;;13.90;99.90;;;;;;5040893;28;20123;-85
2021/09/04 03:17:40;;;;;;;8.02;4.95;;;13.90;99.90;;;;;;5039897;28;20052;-84
2021/09/04 03:20:09;;;;;;;7.28;4.40;;;13.90;99.90;;;;;;5040445;28;20045;-85
2021/09/04 03:22:36;;;;;;;8.20;5.10;;;13.90;99.90;;;;;;5047649;28;20140;-85
2021/09/04 03:25:04;;;;;;;9.82;5.18;;;13.80;99.90;;;;;;5040864;28;20638;-85
2021/09/04 03:27:33;;;;;;;8.90;5.40;;;13.80;99.90;;;;;;5044365;28;20041;-86
2021/09/04 03:30:00;;;;;;;8.73;4.95;;;13.80;99.90;;;;;;5044010;28;20389;-84
2021/09/04 03:32:28;;;;;;;7.93;4.90;;;13.70;99.90;;;;;;5044343;28;20044;-86
2021/09/04 03:34:56;;;;;;;7.05;4.70;;;13.70;99.90;;;;;;5044733;28;20479;-86
2021/09/04 03:37:23;;;;;;;8.07;4.80;;;13.70;99.90;;;;;;5049284;28;20100;-86
2021/09/04 03:39:50;;;;;;;7.55;4.70;;;13.70;99.90;;;;;;5032840;28;20559;-84
2021/09/04 03:42:17;;;;;;;7.25;4.47;;;13.70;99.90;;;;;;5041716;28;20128;-84
2021/09/04 03:44:46;;;;;;;7.63;4.80;;;13.70;99.90;;;;;;5051009;28;20405;-86
2021/09/04 03:47:13;;;;;;;6.68;4.55;;;13.60;99.90;;;;;;5048109;28;20045;-81
2021/09/04 03:49:40;;;;;;;7.90;5.22;;;13.60;99.90;;;;;;5037639;28;20051;-87
2021/09/04 03:52:07;;;;;;;8.10;5.00;;;13.60;99.90;;;;;;5043382;28;20059;-87
2021/09/04 03:54:34;;;;;;;8.52;5.28;;;13.50;99.90;;;;;;5035980;28;20049;-87
2021/09/04 03:57:01;;;;;;;9.45;5.43;;;13.40;99.90;;;;;;5049008;28;20048;-90
2021/09/04 03:59:28;;;;;;;7.38;4.70;;;13.30;99.90;;;;;;5041640;28;20501;-90
2021/09/04 04:02:00;;;;;;;8.88;5.30;;;13.20;99.90;;;;;;5043343;28;20051;-89
2021/09/04 04:04:27;;;;;;;8.85;5.20;;;13.10;99.90;;;;;;5035773;28;20068;-87
2021/09/04 04:06:54;;;;;;;7.47;4.90;;;13.10;99.90;;;;;;5049076;28;20057;-85
2021/09/04 04:09:21;;;;;;;8.43;4.90;;;13.10;99.90;;;;;;5037987;28;20049;-86
2021/09/04 04:11:48;;;;;;;6.85;4.55;;;13.00;99.90;;;;;;5053794;28;20502;-85
2021/09/04 04:14:15;;;;;;;7.32;4.60;;;13.00;99.90;;;;;;5045258;28;20045;-84
2021/09/04 04:16:42;;;;;;;8.27;4.93;;;13.00;99.90;;;;;;5045811;28;20044;-84
2021/09/04 04:19:10;;;;;;;7.65;4.90;;;13.00;99.90;;;;;;5044891;28;20045;-84
2021/09/04 04:21:37;;;;;;;8.50;5.00;;;13.00;99.90;;;;;;5042280;28;20402;-84
2021/09/04 04:24:05;;;;;;;7.97;5.15;;;13.10;99.90;;;;;;5035015;28;20045;-85
2021/09/04 04:26:32;;;;;;;7.47;4.78;;;13.10;99.90;;;;;;5042725;28;20502;-86
2021/09/04 04:28:59;;;;;;;8.77;5.00;;;13.10;99.90;;;;;;5034726;28;20048;-86
2021/09/04 04:31:26;;;;;;;7.60;4.70;;;13.10;99.90;;;;;;5042697;28;20398;-85
2021/09/04 04:33:53;;;;;;;7.45;4.68;;;13.00;99.90;;;;;;5049356;28;20398;-86
2021/09/04 04:36:22;;;;;;;9.23;4.70;;;13.00;99.90;;;;;;5043021;28;20054;-85
2021/09/04 04:38:49;;;;;;;7.22;4.65;;;13.00;99.90;;;;;;5034395;28;20057;-88
2021/09/04 04:41:16;;;;;;;8.98;5.40;;;13.00;99.90;;;;;;5035650;28;20434;-87
2021/09/04 04:43:43;;;;;;;9.70;4.88;;;13.00;99.90;;;;;;5041120;28;20132;-87
2021/09/04 04:46:10;;;;;;;7.00;4.82;;;13.00;99.90;;;;;;5038038;28;20049;-86
2021/09/04 04:48:38;;;;;;;7.35;5.00;;;13.00;99.90;;;;;;5052663;28;20055;-86
2021/09/04 04:51:05;;;;;;;8.93;5.13;;;13.00;99.90;;;;;;5044956;28;20123;-87
2021/09/04 04:53:33;;;;;;;9.00;5.15;;;13.00;99.90;;;;;;5049480;28;20080;-87
2021/09/04 04:56:02;;;;;;;8.63;5.20;;;13.00;99.90;;;;;;5042362;28;20040;-87
2021/09/04 04:58:29;;;;;;;8.02;5.00;;;13.00;99.90;;;;;;5042308;28;20403;-87
2021/09/04 05:00:56;;;;;;;7.10;4.85;;;13.00;99.90;;;;;;5039936;28;20041;-87
2021/09/04 05:03:23;;;;;;;9.23;5.05;;;13.00;99.90;;;;;;5044100;28;20045;-87
2021/09/04 05:05:50;;;;;;;9.43;5.43;;;13.00;99.90;;;;;;5052734;28;20043;-85
2021/09/04 05:08:17;;;;;;;7.95;5.13;;;13.00;99.90;;;;;;5043227;28;20049;-85
2021/09/04 05:10:46;;;;;;;8.50;4.80;;;13.00;99.90;;;;;;5047037;28;20435;-86
2021/09/04 05:13:13;;;;;;;8.82;5.20;;;13.00;99.90;;;;;;5052763;28;20041;-86
2021/09/04 05:15:40;;;;;;;7.78;4.80;;;13.00;99.90;;;;;;5053071;28;20045;-85
2021/09/04 05:18:07;;;;;;;8.00;5.03;;;13.00;99.90;;;;;;5051209;28;20458;-88
2021/09/04 05:20:34;;;;;;;8.82;5.18;;;13.00;99.90;;;;;;5041788;28;20041;-88
2021/09/04 05:23:01;;;;;;;7.22;4.75;;;13.00;99.90;;;;;;5049714;28;20043;-88
2021/09/04 05:25:29;;;;;;;7.25;4.70;;;13.00;99.90;;;;;;5042034;28;20479;-86
2021/09/04 05:27:57;;;;;;;7.50;4.70;;;13.00;99.90;;;;;;5041221;28;20045;-82
2021/09/04 05:30:24;;;;;;;7.88;4.78;;;12.90;99.90;;;;;;5042069;28;20041;-82
2021/09/04 05:32:51;;;;;;;7.72;4.80;;;12.90;99.90;;;;;;5046089;28;20047;-87
2021/09/04 05:35:18;;;;;;;6.88;4.85;;;12.90;99.90;;;;;;5040767;28;20052;-87
2021/09/04 05:37:46;;;;;;;6.93;4.50;;;13.00;99.90;;;;;;5040499;28;20075;-87
2021/09/04 05:40:14;;;;;;;6.97;4.38;;;13.00;99.90;;;;;;5048460;28;20041;-88
2021/09/04 05:42:42;;;;;;;8.85;4.72;;;13.00;99.90;;;;;;5041231;28;20048;-88
2021/09/04 05:45:12;;;;;;;8.18;4.70;;;13.10;99.90;;;;;;5047844;28;20449;-87
2021/09/04 05:47:39;;;;;;;7.10;4.63;;;13.20;99.90;;;;;;5050656;28;20147;-87
2021/09/04 05:50:08;;;;;;;7.13;4.78;;;13.20;99.90;;;;;;5046322;28;20052;-90
2021/09/04 05:52:35;;;;;;;7.93;5.03;;;13.20;99.90;;;;;;5054240;28;20036;-91
2021/09/04 05:55:02;;;;;;;7.75;4.90;;;13.20;99.90;;;;;;5034734;28;20049;-90
2021/09/04 05:57:30;;;;;;;8.60;5.72;;;13.20;99.90;;;;;;5052221;28;20045;-90
2021/09/04 05:59:57;;;;;;;10.05;5.80;;;13.20;99.90;;;;;;5047589;28;20038;-89
2021/09/04 06:02:26;;;;;;;9.52;6.07;;;13.10;99.90;;;;;;5053121;28;20048;-86
2021/09/04 06:04:53;;;;;;;9.45;5.80;;;13.10;99.90;;;;;;5049421;28;20051;-89
2021/09/04 06:07:20;;;;;;;8.88;5.72;;;13.10;99.90;;;;;;5053187;28;20063;-87
2021/09/04 06:09:47;;;;;;;8.48;5.88;;;13.10;99.90;;;;;;5052495;28;20037;-87
2021/09/04 06:12:14;;;;;;;8.98;6.20;;;13.10;99.90;;;;;;5052132;28;20051;-87
2021/09/04 06:14:41;;;;;;;12.32;6.50;;;13.00;99.90;;;;;;5052358;28;20127;-86
2021/09/04 06:17:08;;;;;;;10.38;6.35;;;13.00;99.90;;;;;;5046521;28;20048;-89
2021/09/04 06:19:37;;;;;;;8.57;5.85;;;13.00;99.90;;;;;;5050296;28;20041;-89
2021/09/04 06:22:04;;;;;;;11.10;6.03;;;13.10;99.90;;;;;;5033936;28;20050;-88
2021/09/04 06:24:31;;;;;;;9.95;5.68;;;13.10;99.90;;;;;;5041380;28;20088;-87
2021/09/04 06:26:58;;;;;;;8.75;5.78;;;13.10;99.90;;;;;;5035168;28;20116;-87
2021/09/04 06:29:25;;;;;;;10.25;6.20;;;13.20;99.90;;;;;;5034201;28;20470;-87
2021/09/04 06:31:53;;;;;;;9.93;6.30;;;13.30;99.90;;;;;;5047175;28;20152;-86
2021/09/04 06:34:20;;;;;;;10.20;6.75;;;13.30;99.90;;;;;;5051033;28;20057;-86
2021/09/04 06:36:49;;;;;;;9.38;6.38;;;13.40;99.90;;;;;;5050779;28;20072;-86
2021/09/04 06:39:16;;;;;;;10.38;6.72;;;13.40;99.90;;;;;;5055425;28;20463;-86
2021/09/04 06:41:43;;;;;;;10.10;6.80;;;13.40;99.90;;;;;;5054089;28;20395;-85
2021/09/04 06:44:10;;;;;;;11.10;6.65;;;13.50;99.90;;;;;;5054668;28;20069;-83
2021/09/04 06:46:37;;;;;;;9.65;7.10;;;13.50;99.90;;;;;;5057227;28;20049;-92
2021/09/04 06:49:04;;;;;;;11.43;6.68;;;13.60;99.90;;;;;;5059429;28;20141;-93
2021/09/04 06:51:31;;;;;;;10.07;6.70;;;13.60;99.90;;;;;;5057854;28;20467;-90
2021/09/04 06:54:00;;;;;;;9.65;6.80;;;13.70;99.90;;;;;;5057807;28;20075;-95
2021/09/04 06:56:27;;;;;;;9.07;6.75;;;13.80;99.90;;;;;;5049462;28;20060;-94
2021/09/04 06:58:54;;;;;;;8.82;5.80;;;13.80;99.90;;;;;;5056668;28;20051;-82
2021/09/04 07:01:21;;;;;;;10.02;6.13;;;13.90;99.90;;;;;;5050340;28;20045;-84
2021/09/04 07:03:48;;;;;;;8.60;6.05;;;14.00;99.90;;;;;;5047790;28;20047;-84
2021/09/04 07:06:15;;;;;;;10.00;6.90;;;14.00;99.90;;;;;;5045763;28;20466;-85
2021/09/04 07:08:42;;;;;;;8.68;6.20;;;14.10;99.90;;;;;;5044273;28;20052;-83
2021/09/04 07:11:10;;;;;;;9.65;6.20;;;14.20;99.90;;;;;;5048171;28;20048;-89
2021/09/04 07:13:38;;;;;;;9.90;5.97;;;14.30;99.90;;;;;;5043713;28;20052;-85
2021/09/04 07:16:05;;;;;;;9.50;5.68;;;14.30;99.90;;;;;;5047092;28;20049;-88
2021/09/04 07:18:32;;;;;;;8.88;5.22;;;14.40;99.90;;;;;;5051395;28;20505;-87
2021/09/04 07:20:59;;;;;;;10.40;5.90;;;14.40;99.90;;;;;;5044598;28;20128;-87
2021/09/04 07:23:26;;;;;;;8.85;5.07;;;14.50;99.90;;;;;;5054580;28;20047;-88
2021/09/04 07:25:53;;;;;;;8.75;5.43;;;14.60;99.90;;;;;;5044659;28;20049;-87
2021/09/04 07:28:22;;;;;;;9.80;5.47;;;14.60;99.90;;;;;;5046465;28;20053;-88
2021/09/04 07:30:49;;;;;;;7.82;4.90;;;14.70;99.90;;;;;;5057684;28;20140;-87
2021/09/04 07:33:16;;;;;;;8.82;5.35;;;14.70;99.90;;;;;;5071885;28;20037;-88
2021/09/04 07:35:43;;;;;;;7.80;4.63;;;14.80;99.90;;;;;;5063616;28;20109;-90
2021/09/04 07:38:10;;;;;;;8.43;5.07;;;14.90;99.90;;;;;;5048081;28;20490;-86
2021/09/04 07:40:37;;;;;;;7.80;4.55;;;15.00;99.90;;;;;;5054403;28;20040;-88
2021/09/04 07:43:08;;;;;;;8.20;5.22;;;15.10;99.90;;;;;;5056976;28;20533;-90
2021/09/04 07:45:36;;;;;;;7.93;5.05;;;15.10;99.90;;;;;;5055672;28;20049;-89
2021/09/04 07:48:04;;;;;;;8.77;5.60;;;15.20;99.90;;;;;;5056256;28;20067;-89
2021/09/04 07:50:32;;;;;;;9.50;5.90;;;15.30;99.90;;;;;;5055860;28;20045;-89
2021/09/04 07:52:59;;;;;;;9.50;5.80;;;15.30;99.90;;;;;;5055456;28;20482;-89
2021/09/04 07:55:27;;;;;;;7.45;4.70;;;15.40;99.90;;;;;;5055209;28;20510;-87
2021/09/04 07:57:54;;;;;;;8.52;5.43;;;15.50;99.90;;;;;;5055136;28;20057;-88
2021/09/04 08:00:21;;;;;;;7.18;4.80;;;15.50;99.90;;;;;;5054767;28;20671;-82
2021/09/04 08:02:49;;;;;;;7.43;4.60;;;15.60;99.90;;;;;;5035397;28;20133;-83
2021/09/04 08:05:16;;;;;;;7.13;4.88;;;15.70;99.90;;;;;;5034875;28;20417;-84
2021/09/04 08:07:43;;;;;;;7.35;4.80;;;15.80;99.90;;;;;;5034590;28;20052;-84
2021/09/04 08:10:11;;;;;;;7.57;5.47;;;15.90;99.90;;;;;;5039776;28;20041;-82
2021/09/04 08:12:38;;;;;;;8.57;5.30;;;16.00;99.90;;;;;;5052318;28;20056;-83
2021/09/04 08:15:06;;;;;;;9.45;5.45;;;16.10;99.90;;;;;;5054179;28;20505;-83
2021/09/04 08:17:33;;;;;;;7.57;4.75;;;16.20;99.90;;;;;;5048471;28;20046;-84
2021/09/04 08:20:02;;;;;;;6.65;4.30;;;16.20;99.90;;;;;;5034601;28;20049;-82
2021/09/04 08:22:29;;;;;;;7.00;4.70;;;16.30;99.90;;;;;;5034739;28;20045;-82
2021/09/04 08:24:58;;;;;;;8.18;5.18;;;16.40;99.90;;;;;;5034388;28;20041;-82
2021/09/04 08:27:25;;;;;;;7.03;4.80;;;16.40;99.90;;;;;;5034345;28;20057;-82
2021/09/04 08:29:52;;;;;;;13.27;9.18;;;16.60;99.90;;;;;;5040850;28;20501;-82
2021/09/04 08:32:20;;;;;;;9.95;6.10;;;16.60;99.90;;;;;;5054269;28;20049;-83
2021/09/04 08:34:47;;;;;;;8.23;5.22;;;16.70;99.90;;;;;;5054122;28;20053;-82
2021/09/04 08:37:16;;;;;;;7.82;4.75;;;16.80;99.90;;;;;;5053966;28;20052;-82
2021/09/04 08:39:43;;;;;;;7.45;4.60;;;16.80;99.90;;;;;;5053678;28;20552;-82
2021/09/04 08:42:11;;;;;;;8.15;4.93;;;17.00;99.90;;;;;;5053871;28;20562;-82
2021/09/04 08:44:38;;;;;;;8.00;5.28;;;17.10;99.90;;;;;;5053822;28;20508;-83
2021/09/04 08:47:09;;;;;;;12.32;6.15;;;17.10;99.90;;;;;;5041053;28;20049;-82
2021/09/04 08:49:37;;;;;;;7.97;4.50;;;17.20;99.90;;;;;;5033952;28;20488;-85
2021/09/04 08:52:06;;;;;;;7.47;4.68;;;17.30;99.90;;;;;;5033943;28;20069;-85
2021/09/04 08:54:34;;;;;;;8.35;4.50;;;17.40;99.90;;;;;;5034259;28;20045;-86
2021/09/04 08:57:01;;;;;;;7.68;5.03;;;17.50;99.90;;;;;;5033458;28;20617;-85
2021/09/04 08:59:28;;;;;;;6.50;4.53;;;17.60;99.90;;;;;;5035064;28;20059;-87
2021/09/04 09:01:55;;;;;;;7.88;4.72;;;17.70;99.90;;;;;;5033770;28;20132;-85
2021/09/04 09:04:25;;;;;;;6.13;3.90;;;17.80;99.90;;;;;;5033902;28;20415;-82
2021/09/04 09:06:52;;;;;;;6.30;4.32;;;17.90;99.90;;;;;;5044263;28;20055;-82
2021/09/04 09:09:21;;;;;;;8.82;4.55;;;17.90;99.90;;;;;;5053464;28;20047;-83
2021/09/04 09:11:52;;;;;;;6.65;4.22;;;18.00;99.90;;;;;;5053361;28;20053;-82
2021/09/04 09:14:22;;;;;;;7.22;4.47;;;18.10;99.90;;;;;;5053667;28;20049;-81
2021/09/04 09:16:55;;;;;;;6.55;4.18;;;18.10;99.90;;;;;;5050284;28;20041;-81
2021/09/04 09:19:26;;;;;;;6.80;3.90;;;18.20;99.90;;;;;;5032776;28;20590;-81
2021/09/04 09:21:56;;;;;;;6.60;4.13;;;18.20;99.90;;;;;;5033549;28;20050;-82
2021/09/04 09:24:25;;;;;;;7.28;4.50;;;18.30;99.90;;;;;;5033215;28;20047;-82
2021/09/04 09:27:00;;;;;;;6.07;4.03;;;18.40;99.90;;;;;;5033306;28;20056;-82
2021/09/04 09:29:32;;;;;;;6.68;4.07;;;18.50;99.90;;;;;;5033347;28;20045;-82
2021/09/04 09:32:02;;;;;;;6.82;4.13;;;18.60;99.90;;;;;;5033798;28;20046;-81
2021/09/04 09:34:29;;;;;;;6.07;3.95;;;18.70;99.90;;;;;;5032948;28;20059;-81
2021/09/04 09:37:01;;;;;;;6.20;4.10;;;18.70;99.90;;;;;;5043238;28;20128;-82
2021/09/04 09:39:33;;;;;;;6.75;4.40;;;18.80;99.90;;;;;;5048986;28;20529;-82
2021/09/04 09:42:04;;;;;;;6.93;4.30;;;18.90;99.90;;;;;;5049029;28;20056;-81
2021/09/04 09:44:36;;;;;;;5.95;3.67;;;18.90;99.70;;;;;;5048955;28;20128;-82
2021/09/04 09:47:06;;;;;;;6.18;3.60;;;19.00;99.50;;;;;;5036357;28;20045;-81
2021/09/04 09:49:36;;;;;;;7.28;4.45;;;19.10;99.30;;;;;;5028984;28;20145;-82
2021/09/04 09:52:06;;;;;;;8.18;4.20;;;19.10;98.90;;;;;;5029251;28;20041;-82
2021/09/04 09:54:35;;;;;;;6.05;3.80;;;19.20;98.80;;;;;;5048924;28;20091;-82
2021/09/04 09:57:07;;;;;;;6.35;4.13;;;19.20;98.50;;;;;;5032856;28;20129;-82
2021/09/04 09:59:34;;;;;;;6.97;3.85;;;19.30;98.50;;;;;;5028568;28;20537;-82
2021/09/04 10:02:07;;;;;;;6.32;3.58;;;19.40;98.30;;;;;;5028988;28;20042;-82
2021/09/04 10:04:36;;;;;;;5.85;3.55;;;19.40;98.20;;;;;;5029067;28;20555;-82
2021/09/04 10:07:06;;;;;;;5.25;3.33;;;19.50;98.00;;;;;;5040588;28;20045;-82
2021/09/04 10:09:35;;;;;;;5.85;3.50;;;19.60;97.90;;;;;;5051276;28;20059;-82
2021/09/04 10:12:04;;;;;;;5.70;3.40;;;19.60;97.90;;;;;;5050830;28;20384;-83
2021/09/04 10:14:32;;;;;;;5.00;3.00;;;19.60;98.00;;;;;;5051971;28;20056;-82
2021/09/04 10:17:02;;;;;;;4.80;3.15;;;19.70;97.60;;;;;;5052697;28;20405;-82
2021/09/04 10:19:34;;;;;;;6.20;3.58;;;19.80;97.40;;;;;;5041096;28;20049;-84
2021/09/04 10:22:05;;;;;;;5.80;3.55;;;19.90;97.20;;;;;;5032668;28;20480;-83
2021/09/04 10:24:51;;;;;;;5.80;3.40;;;19.90;97.00;;;;;;5032230;28;20525;-84
2021/09/04 10:27:33;;;;;;;5.15;3.40;;;20.00;96.90;;;;;;5032721;28;20041;-81
2021/09/04 10:30:25;;;;;;;4.35;2.80;;;20.10;96.90;;;;;;5043842;28;20091;-84
2021/09/04 10:33:05;;;;;;;4.85;3.28;;;20.10;96.70;;;;;;5046671;28;20128;-82
2021/09/04 10:35:45;;;;;;;5.63;3.65;;;20.20;96.50;;;;;;5039167;28;20045;-84
2021/09/04 10:38:28;;;;;;;5.22;3.38;;;20.30;96.30;;;;;;5038110;28;20072;-84
2021/09/04 10:41:22;;;;;;;5.13;3.30;;;20.30;96.50;;;;;;5052579;28;20064;-85
2021/09/04 10:43:56;;;;;;;6.07;3.55;;;20.40;96.50;;;;;;5052858;28;20053;-85
2021/09/04 10:46:25;;;;;;;5.80;3.60;;;20.40;96.40;;;;;;5052268;28;20544;-84
2021/09/04 10:49:03;;;;;;;6.38;4.25;;;20.40;96.40;;;;;;5052115;28;20063;-83
2021/09/04 10:51:51;;;;;;;5.53;3.60;;;20.50;96.40;;;;;;5050251;28;20171;-85
2021/09/04 10:54:58;;;;;;;6.28;3.45;;;20.50;96.50;;;;;;5044998;28;20660;-85
2021/09/04 10:57:26;;;;;;;5.38;2.97;;;20.60;96.40;;;;;;5033621;28;20049;-84
2021/09/04 11:00:08;;;;;;;5.82;3.65;;;20.60;95.90;;;;;;5045996;28;20044;-83
2021/09/04 11:02:51;;;;;;;6.78;3.85;;;20.70;95.80;;;;;;5031920;28;20049;-84
2021/09/04 11:05:44;;;;;;;7.97;3.95;;;20.70;95.60;;;;;;5032437;28;20415;-83
2021/09/04 11:08:14;;;;;;;5.97;3.65;;;20.80;95.70;;;;;;5033122;28;20093;-79
2021/09/04 11:10:43;;;;;;;7.05;4.60;;;20.90;95.70;;;;;;5031826;28;20487;-79
2021/09/04 11:13:36;;;;;;;5.43;3.83;;;20.90;95.30;;;;;;5043503;28;20044;-79
2021/09/04 11:16:51;;;;;;;6.15;4.03;;;21.00;95.10;;;;;;5048635;28;20055;-79
2021/09/04 11:19:24;;;;;;;6.40;3.40;;;21.00;94.40;;;;;;5032597;28;20111;-79
2021/09/04 11:22:00;;;;;;;6.00;3.65;;;21.10;94.40;;;;;;5031919;28;20068;-80
2021/09/04 11:24:35;;;;;;;6.68;3.55;;;21.20;94.00;;;;;;5032571;28;20049;-80
2021/09/04 11:27:05;;;;;;;;;;;21.20;94.10;;;;;;5032426;28;20129;-79
2021/09/04 11:29:39;;;;;;;5.20;2.83;;;21.20;93.90;;;;;;5031071;28;19931;-79
2021/09/04 11:32:08;;;;;;;4.97;3.13;;;21.30;93.70;;;;;;5032038;28;20497;-79
2021/09/04 11:34:49;;;;;;;5.10;2.85;;;21.40;93.20;;;;;;5031521;28;20467;-79
2021/09/04 11:37:23;;;;;;;5.15;3.35;;;21.50;93.10;;;;;;5031649;28;20092;-79
2021/09/04 11:39:54;;;;;;;5.78;3.90;;;21.50;93.20;;;;;;5050647;28;20063;-79
2021/09/04 11:42:23;;;;;;;5.57;3.50;;;21.60;93.30;;;;;;5049435;28;20048;-78
2021/09/04 11:44:53;;;;;;;6.07;3.45;;;21.70;93.30;;;;;;5051582;28;20409;-78
2021/09/04 11:47:23;;;;;;;5.55;3.10;;;21.70;93.30;;;;;;5051087;28;20045;-79
2021/09/04 11:49:52;;;;;;;5.72;3.60;;;21.80;93.30;;;;;;5051356;28;20048;-78
2021/09/04 11:52:32;;;;;;;5.22;3.58;;;21.90;93.00;;;;;;5051135;28;20071;-78
2021/09/04 11:55:17;;;;;;;6.43;4.15;;;22.00;92.30;;;;;;5051490;28;20045;-77
2021/09/04 11:57:46;;;;;;;5.47;3.38;;;22.10;91.80;;;;;;5049118;28;20041;-77
2021/09/04 12:00:17;;;;;;;5.25;3.28;;;22.20;91.40;;;;;;5050477;28;20128;-77
2021/09/04 12:02:49;;;;;;;5.93;3.88;;;22.30;91.20;;;;;;5047567;28;20509;-77
2021/09/04 12:05:18;;;;;;;4.97;3.15;;;22.40;91.20;;;;;;5040870;28;20051;-77
2021/09/04 12:07:46;;;;;;;4.70;3.08;;;22.50;91.30;;;;;;5043658;28;20047;-78
2021/09/04 12:10:16;;;;;;;6.20;3.47;;;22.60;90.80;;;;;;5038718;28;20072;-78
2021/09/04 12:12:45;;;;;;;4.90;2.90;;;22.70;90.50;;;;;;5037243;28;20132;-79
2021/09/04 12:15:14;;;;;;;5.07;3.05;;;22.80;90.30;;;;;;5040760;28;20051;-79
2021/09/04 12:17:56;;;;;;;4.82;2.70;;;22.90;89.60;;;;;;5038607;28;20052;-79
2021/09/04 12:20:39;;;;;;;4.38;2.80;;;23.00;89.70;;;;;;5040694;28;20156;-79
2021/09/04 12:23:18;;;;;;;4.30;2.80;;;23.10;89.40;;;;;;5035090;28;20047;-80
2021/09/04 12:25:47;;;;;;;5.32;3.15;;;23.30;87.60;;;;;;5042911;28;20102;-79
2021/09/04 12:28:22;;;;;;;5.53;3.10;;;23.40;85.70;;;;;;5038790;28;20403;-79
2021/09/04 12:31:09;;;;;;;4.13;2.67;;;23.50;85.20;;;;;;5037368;28;20041;-79
2021/09/04 12:34:01;;;;;;;5.13;2.70;;;23.60;84.20;;;;;;5038174;28;20054;-80
2021/09/04 12:36:41;;;;;;;4.97;2.95;;;23.80;83.80;;;;;;5041881;28;20068;-80
2021/09/04 12:39:18;;;;;;;4.10;2.60;;;23.90;82.80;;;;;;5038575;28;20057;-80
2021/09/04 12:41:46;;;;;;;4.97;2.65;;;24.10;81.00;;;;;;5038894;28;20079;-79
2021/09/04 12:44:14;;;;;;;4.60;2.63;;;24.20;81.10;;;;;;5040014;28;20056;-80
2021/09/04 12:46:44;;;;;;;4.45;2.50;;;24.30;79.40;;;;;;5041634;28;20509;-79
2021/09/04 12:49:26;;;;;;;4.05;2.45;;;24.30;78.90;;;;;;5039970;28;20045;-78
2021/09/04 12:52:11;;;;;;;4.57;2.70;;;24.40;79.20;;;;;;5042570;28;20045;-79
2021/09/04 12:54:42;;;;;;;4.47;2.60;;;24.60;78.70;;;;;;5036590;28;20047;-94
2021/09/04 12:57:15;;;;;;;4.10;2.20;;;24.70;78.20;;;;;;5040977;28;20202;-91
2021/09/04 12:59:51;;;;;;;4.07;2.30;;;24.90;78.40;;;;;;5035483;28;20055;-94